Terminal Aerodrome Forecast
Issued by NWS Newport/Morehead City, NC

Home | Current Version | Previous Version | Text Only | Print | Product List | Glossary Off
Versions: 1 2 3 4 5 6 7 8 9 10 11 12 13 14 15 16 17 18 19 20

000
FTUS42 KMHX 041022 AAB
TAFEWN
TAF AMD
KEWN 041022Z 0410/0506 18008KT 2SM RA SCT007 BKN035
     FM041200 23008KT 3SM -RA OVC007
     FM041700 01009G15KT 3SM -RA OVC007
     FM050000 03009KT 2SM -RA BR OVC005=

USA.gov is the U.S. government's official web portal to all federal, state and local government web resources and services.